sensor_id;sensor_type;location;lat;lon;timestamp;P1;durP1;ratioP1;P2;durP2;ratioP2
67278;SDS011;54193;53.746;10.058;2023-03-01T00:01:08;15.70;;;6.72;;
67278;SDS011;54193;53.746;10.058;2023-03-01T00:03:56;17.08;;;7.18;;
67278;SDS011;54193;53.746;10.058;2023-03-01T00:06:43;19.45;;;7.20;;
67278;SDS011;54193;53.746;10.058;2023-03-01T00:09:31;18.10;;;6.47;;
67278;SDS011;54193;53.746;10.058;2023-03-01T00:12:16;14.52;;;7.03;;
67278;SDS011;54193;53.746;10.058;2023-03-01T00:15:02;15.25;;;6.72;;
67278;SDS011;54193;53.746;10.058;2023-03-01T00:17:50;18.27;;;7.27;;
67278;SDS011;54193;53.746;10.058;2023-03-01T00:20:35;16.35;;;7.53;;
67278;SDS011;54193;53.746;10.058;2023-03-01T00:23:21;18.75;;;7.30;;
67278;SDS011;54193;53.746;10.058;2023-03-01T00:26:09;17.90;;;6.80;;
67278;SDS011;54193;53.746;10.058;2023-03-01T00:28:57;17.73;;;7.53;;
67278;SDS011;54193;53.746;10.058;2023-03-01T00:31:43;17.80;;;7.00;;
67278;SDS011;54193;53.746;10.058;2023-03-01T00:34:28;19.35;;;7.40;;
67278;SDS011;54193;53.746;10.058;2023-03-01T00:37:14;18.90;;;7.57;;
67278;SDS011;54193;53.746;10.058;2023-03-01T00:40:00;17.80;;;8.13;;
67278;SDS011;54193;53.746;10.058;2023-03-01T00:42:45;20.08;;;7.65;;
67278;SDS011;54193;53.746;10.058;2023-03-01T00:45:32;18.10;;;7.67;;
67278;SDS011;54193;53.746;10.058;2023-03-01T00:48:18;18.08;;;7.85;;
67278;SDS011;54193;53.746;10.058;2023-03-01T00:51:04;17.45;;;7.25;;
67278;SDS011;54193;53.746;10.058;2023-03-01T00:54:10;18.37;;;7.87;;
67278;SDS011;54193;53.746;10.058;2023-03-01T00:56:56;19.60;;;8.27;;
67278;SDS011;54193;53.746;10.058;2023-03-01T00:59:42;20.85;;;7.78;;
67278;SDS011;54193;53.746;10.058;2023-03-01T01:02:27;19.50;;;7.50;;
67278;SDS011;54193;53.746;10.058;2023-03-01T01:05:13;18.40;;;7.65;;
67278;SDS011;54193;53.746;10.058;2023-03-01T01:07:59;19.17;;;7.57;;
67278;SDS011;54193;53.746;10.058;2023-03-01T01:10:45;18.08;;;7.40;;
67278;SDS011;54193;53.746;10.058;2023-03-01T01:13:31;19.33;;;7.60;;
67278;SDS011;54193;53.746;10.058;2023-03-01T01:16:18;18.55;;;8.48;;
67278;SDS011;54193;53.746;10.058;2023-03-01T01:19:05;21.48;;;8.82;;
67278;SDS011;54193;53.746;10.058;2023-03-01T01:21:51;20.27;;;8.67;;
67278;SDS011;54193;53.746;10.058;2023-03-01T01:24:36;21.23;;;8.55;;
67278;SDS011;54193;53.746;10.058;2023-03-01T01:27:22;19.95;;;8.40;;
67278;SDS011;54193;53.746;10.058;2023-03-01T01:30:08;20.95;;;9.23;;
67278;SDS011;54193;53.746;10.058;2023-03-01T01:32:54;26.75;;;11.00;;
67278;SDS011;54193;53.746;10.058;2023-03-01T01:35:40;23.90;;;10.13;;
67278;SDS011;54193;53.746;10.058;2023-03-01T01:38:25;21.00;;;9.32;;
67278;SDS011;54193;53.746;10.058;2023-03-01T01:41:11;23.17;;;9.77;;
67278;SDS011;54193;53.746;10.058;2023-03-01T01:47:00;22.70;;;9.18;;
67278;SDS011;54193;53.746;10.058;2023-03-01T01:49:50;21.60;;;8.73;;
67278;SDS011;54193;53.746;10.058;2023-03-01T01:52:39;22.38;;;9.70;;
67278;SDS011;54193;53.746;10.058;2023-03-01T01:55:25;23.17;;;10.35;;
67278;SDS011;54193;53.746;10.058;2023-03-01T01:58:14;26.17;;;10.10;;
67278;SDS011;54193;53.746;10.058;2023-03-01T02:01:03;20.95;;;9.25;;
67278;SDS011;54193;53.746;10.058;2023-03-01T02:03:49;24.05;;;8.57;;
67278;SDS011;54193;53.746;10.058;2023-03-01T02:06:46;20.98;;;8.30;;
67278;SDS011;54193;53.746;10.058;2023-03-01T02:09:36;22.00;;;8.50;;
67278;SDS011;54193;53.746;10.058;2023-03-01T02:12:23;19.05;;;8.60;;
67278;SDS011;54193;53.746;10.058;2023-03-01T02:15:10;22.05;;;9.43;;
67278;SDS011;54193;53.746;10.058;2023-03-01T02:17:55;20.77;;;8.67;;
67278;SDS011;54193;53.746;10.058;2023-03-01T02:20:54;21.40;;;8.48;;
67278;SDS011;54193;53.746;10.058;2023-03-01T02:23:44;19.40;;;8.20;;
67278;SDS011;54193;53.746;10.058;2023-03-01T02:26:35;18.27;;;8.23;;
67278;SDS011;54193;53.746;10.058;2023-03-01T02:29:27;21.25;;;8.27;;
67278;SDS011;54193;53.746;10.058;2023-03-01T02:32:13;20.50;;;8.38;;
67278;SDS011;54193;53.746;10.058;2023-03-01T02:35:00;20.23;;;8.40;;
67278;SDS011;54193;53.746;10.058;2023-03-01T02:37:46;22.50;;;8.30;;
67278;SDS011;54193;53.746;10.058;2023-03-01T02:40:33;25.00;;;9.70;;
67278;SDS011;54193;53.746;10.058;2023-03-01T02:43:21;21.17;;;8.55;;
67278;SDS011;54193;53.746;10.058;2023-03-01T02:46:27;18.63;;;8.53;;
67278;SDS011;54193;53.746;10.058;2023-03-01T02:49:21;21.15;;;8.43;;
67278;SDS011;54193;53.746;10.058;2023-03-01T02:55:26;22.50;;;9.10;;
67278;SDS011;54193;53.746;10.058;2023-03-01T02:58:12;24.17;;;8.75;;
67278;SDS011;54193;53.746;10.058;2023-03-01T03:00:59;23.27;;;9.50;;
67278;SDS011;54193;53.746;10.058;2023-03-01T03:03:46;27.42;;;9.95;;
67278;SDS011;54193;53.746;10.058;2023-03-01T03:06:32;24.10;;;9.30;;
67278;SDS011;54193;53.746;10.058;2023-03-01T03:09:18;24.05;;;10.10;;
67278;SDS011;54193;53.746;10.058;2023-03-01T03:12:04;24.50;;;9.60;;
67278;SDS011;54193;53.746;10.058;2023-03-01T03:14:50;21.90;;;9.60;;
67278;SDS011;54193;53.746;10.058;2023-03-01T03:17:36;24.00;;;9.38;;
67278;SDS011;54193;53.746;10.058;2023-03-01T03:20:25;23.67;;;9.73;;
67278;SDS011;54193;53.746;10.058;2023-03-01T03:23:12;26.35;;;10.27;;
67278;SDS011;54193;53.746;10.058;2023-03-01T03:25:58;28.30;;;9.55;;
67278;SDS011;54193;53.746;10.058;2023-03-01T03:28:43;25.42;;;10.60;;
67278;SDS011;54193;53.746;10.058;2023-03-01T03:31:29;27.80;;;10.50;;
67278;SDS011;54193;53.746;10.058;2023-03-01T03:34:16;26.80;;;10.33;;
67278;SDS011;54193;53.746;10.058;2023-03-01T03:37:03;26.65;;;10.90;;
67278;SDS011;54193;53.746;10.058;2023-03-01T03:39:48;28.38;;;11.07;;
67278;SDS011;54193;53.746;10.058;2023-03-01T03:42:34;26.90;;;11.00;;
67278;SDS011;54193;53.746;10.058;2023-03-01T03:45:20;28.13;;;11.95;;
67278;SDS011;54193;53.746;10.058;2023-03-01T03:48:06;27.98;;;12.05;;
67278;SDS011;54193;53.746;10.058;2023-03-01T03:50:55;30.95;;;11.52;;
67278;SDS011;54193;53.746;10.058;2023-03-01T03:53:42;31.95;;;12.13;;
67278;SDS011;54193;53.746;10.058;2023-03-01T03:56:28;33.35;;;11.68;;
67278;SDS011;54193;53.746;10.058;2023-03-01T03:59:14;30.80;;;11.90;;
67278;SDS011;54193;53.746;10.058;2023-03-01T04:01:59;27.37;;;10.97;;
67278;SDS011;54193;53.746;10.058;2023-03-01T04:04:45;30.08;;;11.48;;
67278;SDS011;54193;53.746;10.058;2023-03-01T04:07:31;27.92;;;11.45;;
67278;SDS011;54193;53.746;10.058;2023-03-01T04:10:18;29.10;;;11.53;;
67278;SDS011;54193;53.746;10.058;2023-03-01T04:13:08;26.88;;;10.68;;
67278;SDS011;54193;53.746;10.058;2023-03-01T04:15:56;29.60;;;11.25;;
67278;SDS011;54193;53.746;10.058;2023-03-01T04:18:42;29.83;;;11.07;;
67278;SDS011;54193;53.746;10.058;2023-03-01T04:21:27;28.63;;;10.77;;
67278;SDS011;54193;53.746;10.058;2023-03-01T04:24:13;28.73;;;11.25;;
67278;SDS011;54193;53.746;10.058;2023-03-01T04:26:59;28.48;;;11.23;;
67278;SDS011;54193;53.746;10.058;2023-03-01T04:29:44;27.73;;;10.53;;
67278;SDS011;54193;53.746;10.058;2023-03-01T04:32:30;29.88;;;10.98;;
67278;SDS011;54193;53.746;10.058;2023-03-01T04:35:15;27.35;;;10.95;;
67278;SDS011;54193;53.746;10.058;2023-03-01T04:38:01;30.63;;;10.87;;
67278;SDS011;54193;53.746;10.058;2023-03-01T04:40:48;31.90;;;11.82;;
67278;SDS011;54193;53.746;10.058;2023-03-01T04:43:34;30.67;;;12.25;;
67278;SDS011;54193;53.746;10.058;2023-03-01T04:46:20;30.15;;;11.63;;
67278;SDS011;54193;53.746;10.058;2023-03-01T04:49:06;31.20;;;12.70;;
67278;SDS011;54193;53.746;10.058;2023-03-01T04:51:52;32.30;;;13.05;;
67278;SDS011;54193;53.746;10.058;2023-03-01T04:54:37;30.92;;;12.43;;
67278;SDS011;54193;53.746;10.058;2023-03-01T04:57:23;32.40;;;12.33;;
67278;SDS011;54193;53.746;10.058;2023-03-01T05:00:13;32.90;;;12.18;;
67278;SDS011;54193;53.746;10.058;2023-03-01T05:03:05;33.80;;;12.73;;
67278;SDS011;54193;53.746;10.058;2023-03-01T05:05:51;34.77;;;13.33;;
67278;SDS011;54193;53.746;10.058;2023-03-01T05:08:38;33.30;;;13.52;;
67278;SDS011;54193;53.746;10.058;2023-03-01T05:11:24;32.25;;;12.70;;
67278;SDS011;54193;53.746;10.058;2023-03-01T05:14:10;32.92;;;13.13;;
67278;SDS011;54193;53.746;10.058;2023-03-01T05:16:56;32.85;;;13.27;;
67278;SDS011;54193;53.746;10.058;2023-03-01T05:19:49;34.80;;;13.98;;
67278;SDS011;54193;53.746;10.058;2023-03-01T05:22:35;32.47;;;13.15;;
67278;SDS011;54193;53.746;10.058;2023-03-01T05:25:21;34.40;;;13.27;;
67278;SDS011;54193;53.746;10.058;2023-03-01T05:28:09;35.53;;;14.20;;
67278;SDS011;54193;53.746;10.058;2023-03-01T05:30:56;29.60;;;13.45;;
67278;SDS011;54193;53.746;10.058;2023-03-01T05:33:43;27.23;;;11.97;;
67278;SDS011;54193;53.746;10.058;2023-03-01T05:36:28;33.55;;;13.18;;
67278;SDS011;54193;53.746;10.058;2023-03-01T05:39:14;31.75;;;12.80;;
67278;SDS011;54193;53.746;10.058;2023-03-01T05:42:00;28.50;;;12.57;;
67278;SDS011;54193;53.746;10.058;2023-03-01T05:44:46;32.28;;;12.80;;
67278;SDS011;54193;53.746;10.058;2023-03-01T05:47:32;33.60;;;13.25;;
67278;SDS011;54193;53.746;10.058;2023-03-01T05:50:22;33.67;;;13.25;;
67278;SDS011;54193;53.746;10.058;2023-03-01T05:53:18;32.97;;;13.07;;
67278;SDS011;54193;53.746;10.058;2023-03-01T05:56:06;30.75;;;12.35;;
67278;SDS011;54193;53.746;10.058;2023-03-01T05:58:52;31.60;;;12.52;;
67278;SDS011;54193;53.746;10.058;2023-03-01T06:01:38;34.23;;;12.90;;
67278;SDS011;54193;53.746;10.058;2023-03-01T06:04:23;32.55;;;12.85;;
67278;SDS011;54193;53.746;10.058;2023-03-01T06:07:09;30.90;;;12.73;;
67278;SDS011;54193;53.746;10.058;2023-03-01T06:09:54;29.50;;;11.82;;
67278;SDS011;54193;53.746;10.058;2023-03-01T06:12:40;31.52;;;12.70;;
67278;SDS011;54193;53.746;10.058;2023-03-01T06:15:28;33.10;;;13.45;;
67278;SDS011;54193;53.746;10.058;2023-03-01T06:18:14;41.22;;;15.63;;
67278;SDS011;54193;53.746;10.058;2023-03-01T06:21:04;33.93;;;12.73;;
67278;SDS011;54193;53.746;10.058;2023-03-01T06:23:51;31.45;;;12.15;;
67278;SDS011;54193;53.746;10.058;2023-03-01T06:26:37;31.42;;;13.13;;
67278;SDS011;54193;53.746;10.058;2023-03-01T06:29:22;26.70;;;10.93;;
67278;SDS011;54193;53.746;10.058;2023-03-01T06:32:09;26.35;;;10.77;;
67278;SDS011;54193;53.746;10.058;2023-03-01T06:34:55;29.95;;;11.18;;
67278;SDS011;54193;53.746;10.058;2023-03-01T06:37:41;28.13;;;11.75;;
67278;SDS011;54193;53.746;10.058;2023-03-01T06:40:26;24.70;;;10.90;;
67278;SDS011;54193;53.746;10.058;2023-03-01T06:43:12;26.98;;;11.45;;
67278;SDS011;54193;53.746;10.058;2023-03-01T06:45:58;27.77;;;11.60;;
67278;SDS011;54193;53.746;10.058;2023-03-01T06:48:44;29.60;;;11.73;;
67278;SDS011;54193;53.746;10.058;2023-03-01T06:51:29;28.48;;;11.88;;
67278;SDS011;54193;53.746;10.058;2023-03-01T06:54:15;26.38;;;12.02;;
67278;SDS011;54193;53.746;10.058;2023-03-01T06:57:02;27.80;;;12.07;;
67278;SDS011;54193;53.746;10.058;2023-03-01T06:59:48;26.02;;;12.13;;
67278;SDS011;54193;53.746;10.058;2023-03-01T07:02:34;27.38;;;11.70;;
67278;SDS011;54193;53.746;10.058;2023-03-01T07:05:20;30.40;;;12.98;;
67278;SDS011;54193;53.746;10.058;2023-03-01T07:08:05;33.42;;;14.20;;
67278;SDS011;54193;53.746;10.058;2023-03-01T07:10:55;30.45;;;12.55;;
67278;SDS011;54193;53.746;10.058;2023-03-01T07:13:41;27.95;;;12.60;;
67278;SDS011;54193;53.746;10.058;2023-03-01T07:16:30;30.60;;;13.83;;
67278;SDS011;54193;53.746;10.058;2023-03-01T07:19:16;31.85;;;13.52;;
67278;SDS011;54193;53.746;10.058;2023-03-01T07:22:03;32.85;;;13.65;;
67278;SDS011;54193;53.746;10.058;2023-03-01T07:24:49;31.43;;;13.23;;
67278;SDS011;54193;53.746;10.058;2023-03-01T07:27:36;42.65;;;18.05;;
67278;SDS011;54193;53.746;10.058;2023-03-01T07:30:22;36.42;;;17.10;;
67278;SDS011;54193;53.746;10.058;2023-03-01T07:33:09;32.58;;;14.63;;
67278;SDS011;54193;53.746;10.058;2023-03-01T07:35:58;36.17;;;16.73;;
67278;SDS011;54193;53.746;10.058;2023-03-01T07:38:48;35.25;;;16.58;;
67278;SDS011;54193;53.746;10.058;2023-03-01T07:41:33;37.42;;;15.40;;
67278;SDS011;54193;53.746;10.058;2023-03-01T07:44:19;33.23;;;14.20;;
67278;SDS011;54193;53.746;10.058;2023-03-01T07:47:05;37.78;;;14.55;;
67278;SDS011;54193;53.746;10.058;2023-03-01T07:49:51;32.83;;;14.63;;
67278;SDS011;54193;53.746;10.058;2023-03-01T07:52:36;27.63;;;12.07;;
67278;SDS011;54193;53.746;10.058;2023-03-01T07:55:22;35.08;;;14.13;;
67278;SDS011;54193;53.746;10.058;2023-03-01T07:58:08;32.53;;;14.75;;
67278;SDS011;54193;53.746;10.058;2023-03-01T08:00:54;31.80;;;13.40;;
67278;SDS011;54193;53.746;10.058;2023-03-01T08:03:40;35.95;;;14.60;;
67278;SDS011;54193;53.746;10.058;2023-03-01T08:06:26;30.17;;;13.90;;
67278;SDS011;54193;53.746;10.058;2023-03-01T08:09:11;32.05;;;13.68;;
67278;SDS011;54193;53.746;10.058;2023-03-01T08:11:57;30.67;;;12.87;;
67278;SDS011;54193;53.746;10.058;2023-03-01T08:14:46;31.13;;;13.13;;
67278;SDS011;54193;53.746;10.058;2023-03-01T08:17:32;31.27;;;13.85;;
67278;SDS011;54193;53.746;10.058;2023-03-01T08:20:18;30.27;;;12.77;;
67278;SDS011;54193;53.746;10.058;2023-03-01T08:23:04;31.08;;;13.73;;
67278;SDS011;54193;53.746;10.058;2023-03-01T08:25:50;27.60;;;12.25;;
67278;SDS011;54193;53.746;10.058;2023-03-01T08:28:35;25.33;;;10.85;;
67278;SDS011;54193;53.746;10.058;2023-03-01T08:31:22;27.75;;;12.30;;
67278;SDS011;54193;53.746;10.058;2023-03-01T08:34:11;27.75;;;13.00;;
67278;SDS011;54193;53.746;10.058;2023-03-01T08:36:59;29.65;;;12.82;;
67278;SDS011;54193;53.746;10.058;2023-03-01T08:39:45;29.37;;;13.87;;
67278;SDS011;54193;53.746;10.058;2023-03-01T08:42:32;25.27;;;12.70;;
67278;SDS011;54193;53.746;10.058;2023-03-01T08:45:18;32.03;;;14.45;;
67278;SDS011;54193;53.746;10.058;2023-03-01T08:48:03;28.70;;;13.33;;
67278;SDS011;54193;53.746;10.058;2023-03-01T08:50:49;32.15;;;14.50;;
67278;SDS011;54193;53.746;10.058;2023-03-01T08:53:35;25.75;;;12.77;;
67278;SDS011;54193;53.746;10.058;2023-03-01T08:56:21;27.35;;;12.98;;
67278;SDS011;54193;53.746;10.058;2023-03-01T08:59:07;25.58;;;12.25;;
67278;SDS011;54193;53.746;10.058;2023-03-01T09:01:53;25.50;;;12.30;;
67278;SDS011;54193;53.746;10.058;2023-03-01T09:04:39;26.80;;;12.80;;
67278;SDS011;54193;53.746;10.058;2023-03-01T09:07:26;24.97;;;11.67;;
67278;SDS011;54193;53.746;10.058;2023-03-01T09:10:13;25.88;;;11.55;;
67278;SDS011;54193;53.746;10.058;2023-03-01T09:12:58;24.13;;;10.32;;
67278;SDS011;54193;53.746;10.058;2023-03-01T09:15:44;23.90;;;8.40;;
67278;SDS011;54193;53.746;10.058;2023-03-01T09:18:30;25.55;;;10.73;;
67278;SDS011;54193;53.746;10.058;2023-03-01T09:21:16;33.97;;;13.07;;
67278;SDS011;54193;53.746;10.058;2023-03-01T09:24:03;27.05;;;11.32;;
67278;SDS011;54193;53.746;10.058;2023-03-01T09:26:52;24.70;;;10.75;;
67278;SDS011;54193;53.746;10.058;2023-03-01T09:29:39;25.25;;;10.48;;
67278;SDS011;54193;53.746;10.058;2023-03-01T09:32:25;26.23;;;10.35;;
67278;SDS011;54193;53.746;10.058;2023-03-01T09:35:11;25.97;;;10.10;;
67278;SDS011;54193;53.746;10.058;2023-03-01T09:37:57;27.08;;;10.65;;
67278;SDS011;54193;53.746;10.058;2023-03-01T09:40:43;30.52;;;12.10;;
67278;SDS011;54193;53.746;10.058;2023-03-01T09:46:33;34.83;;;12.73;;
67278;SDS011;54193;53.746;10.058;2023-03-01T09:49:25;34.95;;;11.52;;
67278;SDS011;54193;53.746;10.058;2023-03-01T09:55:36;35.50;;;11.07;;
67278;SDS011;54193;53.746;10.058;2023-03-01T10:04:26;31.67;;;10.40;;
67278;SDS011;54193;53.746;10.058;2023-03-01T10:10:37;32.50;;;10.52;;
67278;SDS011;54193;53.746;10.058;2023-03-01T10:16:21;38.60;;;10.73;;
67278;SDS011;54193;53.746;10.058;2023-03-01T10:19:14;53.90;;;11.63;;
67278;SDS011;54193;53.746;10.058;2023-03-01T10:22:13;32.10;;;10.05;;
67278;SDS011;54193;53.746;10.058;2023-03-01T10:25:02;31.23;;;10.90;;
67278;SDS011;54193;53.746;10.058;2023-03-01T10:27:52;37.88;;;11.45;;
67278;SDS011;54193;53.746;10.058;2023-03-01T10:30:40;32.67;;;10.40;;
67278;SDS011;54193;53.746;10.058;2023-03-01T10:33:30;32.10;;;9.60;;
67278;SDS011;54193;53.746;10.058;2023-03-01T10:36:17;25.60;;;8.40;;
67278;SDS011;54193;53.746;10.058;2023-03-01T10:39:03;30.15;;;9.38;;
67278;SDS011;54193;53.746;10.058;2023-03-01T10:41:59;27.67;;;9.20;;
67278;SDS011;54193;53.746;10.058;2023-03-01T10:44:49;30.55;;;9.95;;
67278;SDS011;54193;53.746;10.058;2023-03-01T10:47:35;28.02;;;8.75;;
67278;SDS011;54193;53.746;10.058;2023-03-01T10:50:21;26.23;;;9.15;;
67278;SDS011;54193;53.746;10.058;2023-03-01T10:53:18;28.52;;;10.52;;
67278;SDS011;54193;53.746;10.058;2023-03-01T10:56:08;26.90;;;10.00;;
67278;SDS011;54193;53.746;10.058;2023-03-01T11:01:46;25.77;;;9.73;;
67278;SDS011;54193;53.746;10.058;2023-03-01T11:04:59;20.55;;;8.48;;
67278;SDS011;54193;53.746;10.058;2023-03-01T11:07:49;23.02;;;7.68;;
67278;SDS011;54193;53.746;10.058;2023-03-01T11:10:40;24.23;;;9.93;;
67278;SDS011;54193;53.746;10.058;2023-03-01T11:13:25;24.15;;;7.82;;
67278;SDS011;54193;53.746;10.058;2023-03-01T11:16:11;23.85;;;8.60;;
67278;SDS011;54193;53.746;10.058;2023-03-01T11:18:58;25.00;;;8.00;;
67278;SDS011;54193;53.746;10.058;2023-03-01T11:24:46;22.55;;;7.97;;
67278;SDS011;54193;53.746;10.058;2023-03-01T11:27:35;22.23;;;7.93;;
67278;SDS011;54193;53.746;10.058;2023-03-01T11:30:26;23.37;;;8.23;;
67278;SDS011;54193;53.746;10.058;2023-03-01T11:33:19;22.10;;;8.20;;
67278;SDS011;54193;53.746;10.058;2023-03-01T11:36:19;24.48;;;8.82;;
67278;SDS011;54193;53.746;10.058;2023-03-01T11:39:15;20.20;;;7.90;;
67278;SDS011;54193;53.746;10.058;2023-03-01T11:45:23;20.98;;;7.40;;
67278;SDS011;54193;53.746;10.058;2023-03-01T11:54:44;19.02;;;7.22;;
67278;SDS011;54193;53.746;10.058;2023-03-01T11:58:03;21.00;;;7.53;;
67278;SDS011;54193;53.746;10.058;2023-03-01T12:22:40;18.23;;;7.55;;
67278;SDS011;54193;53.746;10.058;2023-03-01T12:25:39;16.67;;;6.88;;
67278;SDS011;54193;53.746;10.058;2023-03-01T12:35:06;16.55;;;6.13;;
67278;SDS011;54193;53.746;10.058;2023-03-01T12:47:18;18.58;;;6.68;;
67278;SDS011;54193;53.746;10.058;2023-03-01T12:50:12;12.77;;;6.32;;
67278;SDS011;54193;53.746;10.058;2023-03-01T12:53:03;13.43;;;6.05;;
67278;SDS011;54193;53.746;10.058;2023-03-01T12:55:49;17.08;;;6.50;;
67278;SDS011;54193;53.746;10.058;2023-03-01T12:58:42;14.82;;;6.45;;
67278;SDS011;54193;53.746;10.058;2023-03-01T13:08:05;14.52;;;6.60;;
67278;SDS011;54193;53.746;10.058;2023-03-01T13:11:03;11.87;;;5.40;;
67278;SDS011;54193;53.746;10.058;2023-03-01T13:13:51;12.65;;;5.53;;
67278;SDS011;54193;53.746;10.058;2023-03-01T13:16:40;15.10;;;7.03;;
67278;SDS011;54193;53.746;10.058;2023-03-01T13:19:30;12.52;;;5.55;;
67278;SDS011;54193;53.746;10.058;2023-03-01T13:22:29;13.27;;;5.95;;
67278;SDS011;54193;53.746;10.058;2023-03-01T13:25:17;12.57;;;5.82;;
67278;SDS011;54193;53.746;10.058;2023-03-01T13:37:30;20.38;;;8.70;;
67278;SDS011;54193;53.746;10.058;2023-03-01T13:46:20;15.10;;;7.82;;
67278;SDS011;54193;53.746;10.058;2023-03-01T13:49:18;16.38;;;7.57;;
67278;SDS011;54193;53.746;10.058;2023-03-01T13:52:13;16.05;;;8.02;;
67278;SDS011;54193;53.746;10.058;2023-03-01T13:55:24;18.73;;;8.90;;
67278;SDS011;54193;53.746;10.058;2023-03-01T14:01:23;16.70;;;7.67;;
67278;SDS011;54193;53.746;10.058;2023-03-01T14:04:21;15.52;;;7.47;;
67278;SDS011;54193;53.746;10.058;2023-03-01T14:07:21;16.50;;;7.88;;
67278;SDS011;54193;53.746;10.058;2023-03-01T14:10:11;17.93;;;7.77;;
67278;SDS011;54193;53.746;10.058;2023-03-01T14:13:04;15.55;;;7.32;;
67278;SDS011;54193;53.746;10.058;2023-03-01T14:19:30;15.55;;;7.72;;
67278;SDS011;54193;53.746;10.058;2023-03-01T14:22:22;17.75;;;8.52;;
67278;SDS011;54193;53.746;10.058;2023-03-01T14:25:20;7.72;;;3.75;;
67278;SDS011;54193;53.746;10.058;2023-03-01T14:28:16;13.02;;;5.95;;
67278;SDS011;54193;53.746;10.058;2023-03-01T14:31:05;15.03;;;7.27;;
67278;SDS011;54193;53.746;10.058;2023-03-01T14:34:17;16.27;;;6.93;;
67278;SDS011;54193;53.746;10.058;2023-03-01T14:37:15;14.55;;;6.80;;
67278;SDS011;54193;53.746;10.058;2023-03-01T14:40:05;16.43;;;7.37;;
67278;SDS011;54193;53.746;10.058;2023-03-01T14:43:10;14.18;;;6.35;;
67278;SDS011;54193;53.746;10.058;2023-03-01T14:45:57;15.32;;;6.55;;
67278;SDS011;54193;53.746;10.058;2023-03-01T14:48:43;15.68;;;7.20;;
67278;SDS011;54193;53.746;10.058;2023-03-01T14:51:29;16.40;;;7.28;;
67278;SDS011;54193;53.746;10.058;2023-03-01T14:54:20;15.27;;;6.55;;
67278;SDS011;54193;53.746;10.058;2023-03-01T14:57:12;16.48;;;6.70;;
67278;SDS011;54193;53.746;10.058;2023-03-01T15:00:01;13.23;;;6.90;;
67278;SDS011;54193;53.746;10.058;2023-03-01T15:02:52;14.55;;;6.75;;
67278;SDS011;54193;53.746;10.058;2023-03-01T15:05:38;12.32;;;5.55;;
67278;SDS011;54193;53.746;10.058;2023-03-01T15:08:26;14.33;;;6.00;;
67278;SDS011;54193;53.746;10.058;2023-03-01T15:11:27;12.57;;;5.93;;
67278;SDS011;54193;53.746;10.058;2023-03-01T15:14:28;14.35;;;6.10;;
67278;SDS011;54193;53.746;10.058;2023-03-01T15:17:28;15.05;;;6.10;;
67278;SDS011;54193;53.746;10.058;2023-03-01T15:20:17;12.20;;;5.30;;
67278;SDS011;54193;53.746;10.058;2023-03-01T15:23:13;16.48;;;6.20;;
67278;SDS011;54193;53.746;10.058;2023-03-01T15:26:29;17.65;;;6.57;;
67278;SDS011;54193;53.746;10.058;2023-03-01T15:29:17;17.93;;;6.57;;
67278;SDS011;54193;53.746;10.058;2023-03-01T15:32:06;19.13;;;7.53;;
67278;SDS011;54193;53.746;10.058;2023-03-01T15:41:27;18.92;;;7.63;;
67278;SDS011;54193;53.746;10.058;2023-03-01T15:44:25;22.10;;;9.98;;
67278;SDS011;54193;53.746;10.058;2023-03-01T15:47:47;19.10;;;7.40;;
67278;SDS011;54193;53.746;10.058;2023-03-01T15:50:29;15.32;;;6.35;;
67278;SDS011;54193;53.746;10.058;2023-03-01T15:53:18;17.42;;;6.70;;
67278;SDS011;54193;53.746;10.058;2023-03-01T15:56:03;16.88;;;6.80;;
67278;SDS011;54193;53.746;10.058;2023-03-01T15:58:52;19.07;;;7.47;;
67278;SDS011;54193;53.746;10.058;2023-03-01T16:01:38;18.02;;;8.10;;
67278;SDS011;54193;53.746;10.058;2023-03-01T16:04:23;17.63;;;7.65;;
67278;SDS011;54193;53.746;10.058;2023-03-01T16:07:09;18.40;;;7.77;;
67278;SDS011;54193;53.746;10.058;2023-03-01T16:09:55;15.75;;;7.18;;
67278;SDS011;54193;53.746;10.058;2023-03-01T16:12:40;16.00;;;7.55;;
67278;SDS011;54193;53.746;10.058;2023-03-01T16:15:30;16.77;;;7.20;;
67278;SDS011;54193;53.746;10.058;2023-03-01T16:18:19;17.10;;;7.43;;
67278;SDS011;54193;53.746;10.058;2023-03-01T16:21:05;16.95;;;7.57;;
67278;SDS011;54193;53.746;10.058;2023-03-01T16:23:51;17.77;;;7.95;;
67278;SDS011;54193;53.746;10.058;2023-03-01T16:26:37;17.20;;;7.40;;
67278;SDS011;54193;53.746;10.058;2023-03-01T16:29:23;19.73;;;7.93;;
67278;SDS011;54193;53.746;10.058;2023-03-01T16:32:09;16.60;;;7.32;;
67278;SDS011;54193;53.746;10.058;2023-03-01T16:34:54;16.23;;;7.10;;
67278;SDS011;54193;53.746;10.058;2023-03-01T16:37:40;20.42;;;7.30;;
67278;SDS011;54193;53.746;10.058;2023-03-01T16:40:26;18.08;;;7.53;;
67278;SDS011;54193;53.746;10.058;2023-03-01T16:43:13;11.43;;;5.40;;
67278;SDS011;54193;53.746;10.058;2023-03-01T16:45:59;10.93;;;4.80;;
67278;SDS011;54193;53.746;10.058;2023-03-01T16:48:45;16.70;;;5.90;;
67278;SDS011;54193;53.746;10.058;2023-03-01T16:51:32;11.73;;;5.07;;
67278;SDS011;54193;53.746;10.058;2023-03-01T16:54:19;14.93;;;5.57;;
67278;SDS011;54193;53.746;10.058;2023-03-01T16:57:05;14.43;;;5.88;;
67278;SDS011;54193;53.746;10.058;2023-03-01T16:59:53;20.65;;;7.95;;
67278;SDS011;54193;53.746;10.058;2023-03-01T17:02:40;19.03;;;7.97;;
67278;SDS011;54193;53.746;10.058;2023-03-01T17:05:26;27.90;;;13.63;;
67278;SDS011;54193;53.746;10.058;2023-03-01T17:08:12;28.77;;;12.13;;
67278;SDS011;54193;53.746;10.058;2023-03-01T17:11:08;25.30;;;10.43;;
67278;SDS011;54193;53.746;10.058;2023-03-01T17:13:55;24.20;;;10.45;;
67278;SDS011;54193;53.746;10.058;2023-03-01T17:16:42;22.75;;;8.50;;
67278;SDS011;54193;53.746;10.058;2023-03-01T17:19:28;22.02;;;8.38;;
67278;SDS011;54193;53.746;10.058;2023-03-01T17:22:14;30.80;;;13.47;;
67278;SDS011;54193;53.746;10.058;2023-03-01T17:25:00;28.15;;;12.00;;
67278;SDS011;54193;53.746;10.058;2023-03-01T17:27:46;32.05;;;12.20;;
67278;SDS011;54193;53.746;10.058;2023-03-01T17:30:31;25.73;;;10.17;;
67278;SDS011;54193;53.746;10.058;2023-03-01T17:33:17;36.35;;;15.27;;
67278;SDS011;54193;53.746;10.058;2023-03-01T17:36:05;34.53;;;13.52;;
67278;SDS011;54193;53.746;10.058;2023-03-01T17:38:51;36.03;;;14.43;;
67278;SDS011;54193;53.746;10.058;2023-03-01T17:41:38;44.63;;;18.25;;
67278;SDS011;54193;53.746;10.058;2023-03-01T17:44:24;49.97;;;19.02;;
67278;SDS011;54193;53.746;10.058;2023-03-01T17:47:09;32.05;;;9.85;;
67278;SDS011;54193;53.746;10.058;2023-03-01T17:49:56;26.23;;;9.70;;
67278;SDS011;54193;53.746;10.058;2023-03-01T17:52:41;43.22;;;13.93;;
67278;SDS011;54193;53.746;10.058;2023-03-01T17:55:27;20.33;;;7.63;;
67278;SDS011;54193;53.746;10.058;2023-03-01T17:58:13;22.20;;;8.63;;
67278;SDS011;54193;53.746;10.058;2023-03-01T18:01:05;29.95;;;8.98;;
67278;SDS011;54193;53.746;10.058;2023-03-01T18:03:52;21.85;;;7.07;;
67278;SDS011;54193;53.746;10.058;2023-03-01T18:06:38;43.78;;;13.55;;
67278;SDS011;54193;53.746;10.058;2023-03-01T18:09:28;46.05;;;10.32;;
67278;SDS011;54193;53.746;10.058;2023-03-01T18:12:14;59.45;;;13.25;;